sensor_id;sensor_type;location;lat;lon;timestamp;pressure;altitude;pressure_sealevel;temperature;humidity
41264;BME280;26998;48.714;9.414;2023-01-29T00:00:32;100238.06;;;-0.12;100.00
41264;BME280;26998;48.714;9.414;2023-01-29T00:02:59;100242.38;;;-0.11;100.00
41264;BME280;26998;48.714;9.414;2023-01-29T00:05:25;100245.94;;;-0.12;100.00
41264;BME280;26998;48.714;9.414;2023-01-29T00:07:55;100244.81;;;-0.08;100.00
41264;BME280;26998;48.714;9.414;2023-01-29T00:10:23;100229.88;;;-0.07;100.00
41264;BME280;26998;48.714;9.414;2023-01-29T00:12:50;100223.50;;;-0.03;100.00
41264;BME280;26998;48.714;9.414;2023-01-29T00:15:16;100216.84;;;-0.09;100.00
41264;BME280;26998;48.714;9.414;2023-01-29T00:17:43;100225.13;;;-0.15;100.00
41264;BME280;26998;48.714;9.414;2023-01-29T00:20:10;100233.72;;;-0.13;100.00
41264;BME280;26998;48.714;9.414;2023-01-29T00:22:37;100245.75;;;-0.09;100.00
41264;BME280;26998;48.714;9.414;2023-01-29T00:25:03;100251.19;;;-0.12;100.00
41264;BME280;26998;48.714;9.414;2023-01-29T00:27:30;100246.59;;;-0.08;100.00
41264;BME280;26998;48.714;9.414;2023-01-29T00:29:56;100234.09;;;-0.05;100.00
41264;BME280;26998;48.714;9.414;2023-01-29T00:32:23;100222.00;;;-0.07;100.00
41264;BME280;26998;48.714;9.414;2023-01-29T00:34:50;100215.25;;;-0.11;100.00
41264;BME280;26998;48.714;9.414;2023-01-29T00:37:16;100220.38;;;-0.10;100.00
41264;BME280;26998;48.714;9.414;2023-01-29T00:39:43;100223.03;;;-0.10;100.00
41264;BME280;26998;48.714;9.414;2023-01-29T00:42:13;100212.50;;;-0.10;100.00
41264;BME280;26998;48.714;9.414;2023-01-29T00:44:40;100221.34;;;-0.11;100.00
41264;BME280;26998;48.714;9.414;2023-01-29T00:47:06;100207.44;;;-0.13;100.00
41264;BME280;26998;48.714;9.414;2023-01-29T00:49:33;100217.13;;;-0.13;100.00
41264;BME280;26998;48.714;9.414;2023-01-29T00:51:59;100210.38;;;-0.17;100.00
41264;BME280;26998;48.714;9.414;2023-01-29T00:54:26;100220.25;;;-0.21;100.00
41264;BME280;26998;48.714;9.414;2023-01-29T00:56:52;100230.94;;;-0.24;100.00
41264;BME280;26998;48.714;9.414;2023-01-29T00:59:21;100232.63;;;-0.23;100.00
41264;BME280;26998;48.714;9.414;2023-01-29T01:01:48;100238.81;;;-0.24;100.00
41264;BME280;26998;48.714;9.414;2023-01-29T01:04:14;100238.06;;;-0.26;100.00
41264;BME280;26998;48.714;9.414;2023-01-29T01:06:41;100233.75;;;-0.27;100.00
41264;BME280;26998;48.714;9.414;2023-01-29T01:09:09;100226.72;;;-0.27;100.00
41264;BME280;26998;48.714;9.414;2023-01-29T01:11:35;100220.50;;;-0.26;100.00
41264;BME280;26998;48.714;9.414;2023-01-29T01:14:02;100223.97;;;-0.25;100.00
41264;BME280;26998;48.714;9.414;2023-01-29T01:16:28;100219.47;;;-0.23;100.00
41264;BME280;26998;48.714;9.414;2023-01-29T01:18:55;100209.91;;;-0.24;100.00
41264;BME280;26998;48.714;9.414;2023-01-29T01:21:21;100203.34;;;-0.17;100.00
41264;BME280;26998;48.714;9.414;2023-01-29T01:23:48;100187.69;;;-0.18;100.00
41264;BME280;26998;48.714;9.414;2023-01-29T01:26:14;100173.59;;;-0.17;100.00
41264;BME280;26998;48.714;9.414;2023-01-29T01:28:41;100150.03;;;-0.19;100.00
41264;BME280;26998;48.714;9.414;2023-01-29T01:31:09;100133.63;;;-0.22;100.00
41264;BME280;26998;48.714;9.414;2023-01-29T01:33:37;100129.88;;;-0.18;100.00
41264;BME280;26998;48.714;9.414;2023-01-29T01:36:04;100130.72;;;-0.18;100.00
41264;BME280;26998;48.714;9.414;2023-01-29T01:38:31;100125.66;;;-0.21;100.00
41264;BME280;26998;48.714;9.414;2023-01-29T01:40:58;100132.38;;;-0.17;100.00
41264;BME280;26998;48.714;9.414;2023-01-29T01:43:24;100147.19;;;-0.16;100.00
41264;BME280;26998;48.714;9.414;2023-01-29T01:45:52;100156.34;;;-0.21;100.00
41264;BME280;26998;48.714;9.414;2023-01-29T01:48:22;100170.41;;;-0.22;100.00
41264;BME280;26998;48.714;9.414;2023-01-29T01:50:57;100175.66;;;-0.22;100.00
41264;BME280;26998;48.714;9.414;2023-01-29T01:53:36;100176.59;;;-0.24;100.00
41264;BME280;26998;48.714;9.414;2023-01-29T01:56:07;100183.91;;;-0.29;100.00
41264;BME280;26998;48.714;9.414;2023-01-29T01:58:41;100189.09;;;-0.27;100.00
41264;BME280;26998;48.714;9.414;2023-01-29T02:01:09;100189.94;;;-0.27;100.00
41264;BME280;26998;48.714;9.414;2023-01-29T02:03:46;100184.69;;;-0.27;100.00
41264;BME280;26998;48.714;9.414;2023-01-29T02:06:14;100188.25;;;-0.28;100.00
41264;BME280;26998;48.714;9.414;2023-01-29T02:08:48;100195.47;;;-0.31;100.00
41264;BME280;26998;48.714;9.414;2023-01-29T02:11:18;100187.38;;;-0.28;100.00
41264;BME280;26998;48.714;9.414;2023-01-29T02:13:46;100179.44;;;-0.27;100.00
41264;BME280;26998;48.714;9.414;2023-01-29T02:16:12;100169.75;;;-0.26;100.00
41264;BME280;26998;48.714;9.414;2023-01-29T02:18:39;100161.03;;;-0.27;100.00
41264;BME280;26998;48.714;9.414;2023-01-29T02:27:11;100162.38;;;-0.34;100.00
41264;BME280;26998;48.714;9.414;2023-01-29T02:29:49;100170.91;;;-0.30;100.00
41264;BME280;26998;48.714;9.414;2023-01-29T02:32:23;100171.63;;;-0.28;100.00
41264;BME280;26998;48.714;9.414;2023-01-29T02:37:44;100175.59;;;-0.35;100.00
41264;BME280;26998;48.714;9.414;2023-01-29T02:43:26;100155.31;;;-0.33;100.00
41264;BME280;26998;48.714;9.414;2023-01-29T02:48:56;100127.47;;;-0.36;100.00
41264;BME280;26998;48.714;9.414;2023-01-29T02:54:06;100130.00;;;-0.34;100.00
41264;BME280;26998;48.714;9.414;2023-01-29T02:56:49;100128.31;;;-0.35;100.00
41264;BME280;26998;48.714;9.414;2023-01-29T02:59:24;100135.66;;;-0.40;100.00
41264;BME280;26998;48.714;9.414;2023-01-29T03:02:02;100143.53;;;-0.40;100.00
41264;BME280;26998;48.714;9.414;2023-01-29T03:04:33;100142.00;;;-0.44;100.00
41264;BME280;26998;48.714;9.414;2023-01-29T03:07:08;100144.19;;;-0.51;100.00
41264;BME280;26998;48.714;9.414;2023-01-29T03:09:40;100159.09;;;-0.52;100.00
41264;BME280;26998;48.714;9.414;2023-01-29T03:12:24;100171.28;;;-0.51;100.00
41264;BME280;26998;48.714;9.414;2023-01-29T03:14:51;100171.47;;;-0.54;100.00
41264;BME280;26998;48.714;9.414;2023-01-29T03:17:21;100167.81;;;-0.51;100.00
41264;BME280;26998;48.714;9.414;2023-01-29T03:19:51;100160.69;;;-0.49;100.00
41264;BME280;26998;48.714;9.414;2023-01-29T03:22:19;100147.94;;;-0.55;100.00
41264;BME280;26998;48.714;9.414;2023-01-29T03:24:49;100142.06;;;-0.59;100.00
41264;BME280;26998;48.714;9.414;2023-01-29T03:27:20;100157.63;;;-0.56;100.00
41264;BME280;26998;48.714;9.414;2023-01-29T03:29:49;100149.81;;;-0.57;100.00
41264;BME280;26998;48.714;9.414;2023-01-29T03:32:18;100145.78;;;-0.63;100.00
41264;BME280;26998;48.714;9.414;2023-01-29T03:34:57;100147.75;;;-0.66;100.00
41264;BME280;26998;48.714;9.414;2023-01-29T03:37:42;100143.34;;;-0.66;100.00
41264;BME280;26998;48.714;9.414;2023-01-29T03:40:12;100143.16;;;-0.63;100.00
41264;BME280;26998;48.714;9.414;2023-01-29T03:43:10;100137.91;;;-0.63;100.00
41264;BME280;26998;48.714;9.414;2023-01-29T03:53:42;100135.28;;;-0.63;100.00
41264;BME280;26998;48.714;9.414;2023-01-29T03:56:17;100141.47;;;-0.64;100.00
41264;BME280;26998;48.714;9.414;2023-01-29T03:59:03;100133.50;;;-0.62;100.00
41264;BME280;26998;48.714;9.414;2023-01-29T04:01:41;100131.56;;;-0.59;100.00
41264;BME280;26998;48.714;9.414;2023-01-29T04:04:14;100116.53;;;-0.57;100.00
41264;BME280;26998;48.714;9.414;2023-01-29T04:06:44;100134.91;;;-0.57;100.00
41264;BME280;26998;48.714;9.414;2023-01-29T04:09:18;100136.63;;;-0.56;100.00
41264;BME280;26998;48.714;9.414;2023-01-29T04:11:49;100123.38;;;-0.54;100.00
41264;BME280;26998;48.714;9.414;2023-01-29T04:14:20;100126.84;;;-0.54;100.00
41264;BME280;26998;48.714;9.414;2023-01-29T04:16:51;100131.75;;;-0.62;100.00
41264;BME280;26998;48.714;9.414;2023-01-29T04:19:19;100123.66;;;-0.59;100.00
41264;BME280;26998;48.714;9.414;2023-01-29T04:21:48;100120.19;;;-0.59;100.00
41264;BME280;26998;48.714;9.414;2023-01-29T04:24:16;100110.94;;;-0.65;100.00
41264;BME280;26998;48.714;9.414;2023-01-29T04:29:24;100114.94;;;-0.59;100.00
41264;BME280;26998;48.714;9.414;2023-01-29T04:32:15;100115.50;;;-0.54;100.00
41264;BME280;26998;48.714;9.414;2023-01-29T04:37:34;100124.78;;;-0.49;100.00
41264;BME280;26998;48.714;9.414;2023-01-29T04:42:48;100132.72;;;-0.50;100.00
41264;BME280;26998;48.714;9.414;2023-01-29T04:50:40;100136.81;;;-0.59;100.00
41264;BME280;26998;48.714;9.414;2023-01-29T04:53:17;100121.97;;;-0.60;100.00
41264;BME280;26998;48.714;9.414;2023-01-29T04:55:52;100113.91;;;-0.57;100.00
41264;BME280;26998;48.714;9.414;2023-01-29T04:58:32;100109.47;;;-0.56;100.00
41264;BME280;26998;48.714;9.414;2023-01-29T05:01:01;100100.75;;;-0.57;100.00
41264;BME280;26998;48.714;9.414;2023-01-29T05:03:31;100095.16;;;-0.65;100.00
41264;BME280;26998;48.714;9.414;2023-01-29T05:05:59;100092.94;;;-0.71;100.00
41264;BME280;26998;48.714;9.414;2023-01-29T05:08:28;100098.38;;;-0.74;100.00
41264;BME280;26998;48.714;9.414;2023-01-29T05:10:58;100115.72;;;-0.72;100.00
41264;BME280;26998;48.714;9.414;2023-01-29T05:13:27;100102.28;;;-0.67;100.00
41264;BME280;26998;48.714;9.414;2023-01-29T05:16:22;100120.78;;;-0.68;100.00
41264;BME280;26998;48.714;9.414;2023-01-29T05:18:51;100112.34;;;-0.74;100.00
41264;BME280;26998;48.714;9.414;2023-01-29T05:21:17;100120.97;;;-0.72;100.00
41264;BME280;26998;48.714;9.414;2023-01-29T05:23:44;100121.63;;;-0.68;100.00
41264;BME280;26998;48.714;9.414;2023-01-29T05:26:11;100118.22;;;-0.70;100.00
41264;BME280;26998;48.714;9.414;2023-01-29T05:28:37;100124.25;;;-0.68;100.00
41264;BME280;26998;48.714;9.414;2023-01-29T05:31:04;100119.72;;;-0.66;100.00
41264;BME280;26998;48.714;9.414;2023-01-29T05:33:31;100107.72;;;-0.70;100.00
41264;BME280;26998;48.714;9.414;2023-01-29T05:35:58;100113.56;;;-0.65;100.00
41264;BME280;26998;48.714;9.414;2023-01-29T05:38:25;100124.97;;;-0.66;100.00
41264;BME280;26998;48.714;9.414;2023-01-29T05:40:52;100113.63;;;-0.66;100.00
41264;BME280;26998;48.714;9.414;2023-01-29T05:43:20;100112.78;;;-0.67;100.00
41264;BME280;26998;48.714;9.414;2023-01-29T05:45:58;100105.09;;;-0.70;100.00
41264;BME280;26998;48.714;9.414;2023-01-29T05:48:27;100112.78;;;-0.67;100.00
41264;BME280;26998;48.714;9.414;2023-01-29T05:50:59;100108.50;;;-0.68;100.00
41264;BME280;26998;48.714;9.414;2023-01-29T05:53:27;100119.00;;;-0.68;100.00
41264;BME280;26998;48.714;9.414;2023-01-29T05:55:54;100112.72;;;-0.65;100.00
41264;BME280;26998;48.714;9.414;2023-01-29T05:58:21;100114.19;;;-0.61;100.00
41264;BME280;26998;48.714;9.414;2023-01-29T06:00:48;100107.16;;;-0.61;100.00
41264;BME280;26998;48.714;9.414;2023-01-29T06:03:14;100101.53;;;-0.69;100.00
41264;BME280;26998;48.714;9.414;2023-01-29T06:05:41;100097.78;;;-0.65;100.00
41264;BME280;26998;48.714;9.414;2023-01-29T06:08:07;100088.13;;;-0.64;100.00
41264;BME280;26998;48.714;9.414;2023-01-29T06:10:34;100075.78;;;-0.77;100.00
41264;BME280;26998;48.714;9.414;2023-01-29T06:13:01;100080.38;;;-0.80;100.00
41264;BME280;26998;48.714;9.414;2023-01-29T06:15:27;100095.28;;;-0.81;100.00
41264;BME280;26998;48.714;9.414;2023-01-29T06:17:55;100085.44;;;-0.77;100.00
41264;BME280;26998;48.714;9.414;2023-01-29T06:20:23;100085.44;;;-0.77;100.00
41264;BME280;26998;48.714;9.414;2023-01-29T06:22:50;100083.09;;;-0.82;100.00
41264;BME280;26998;48.714;9.414;2023-01-29T06:25:18;100090.75;;;-0.79;100.00
41264;BME280;26998;48.714;9.414;2023-01-29T06:27:44;100084.78;;;-0.81;100.00
41264;BME280;26998;48.714;9.414;2023-01-29T06:30:11;100104.91;;;-0.81;100.00
41264;BME280;26998;48.714;9.414;2023-01-29T06:32:38;100099.47;;;-0.78;100.00
41264;BME280;26998;48.714;9.414;2023-01-29T06:35:05;100089.84;;;-0.78;100.00
41264;BME280;26998;48.714;9.414;2023-01-29T06:37:32;100099.66;;;-0.81;100.00
41264;BME280;26998;48.714;9.414;2023-01-29T06:39:58;100094.22;;;-0.78;100.00
41264;BME280;26998;48.714;9.414;2023-01-29T06:42:25;100102.09;;;-0.78;100.00
41264;BME280;26998;48.714;9.414;2023-01-29T06:44:53;100095.75;;;-0.74;100.00
41264;BME280;26998;48.714;9.414;2023-01-29T06:47:19;100097.22;;;-0.70;100.00
41264;BME280;26998;48.714;9.414;2023-01-29T06:49:46;100100.50;;;-0.66;100.00
41264;BME280;26998;48.714;9.414;2023-01-29T06:52:12;100112.34;;;-0.74;100.00
41264;BME280;26998;48.714;9.414;2023-01-29T06:54:39;100121.53;;;-0.81;100.00
41264;BME280;26998;48.714;9.414;2023-01-29T06:57:06;100115.22;;;-0.78;100.00
41264;BME280;26998;48.714;9.414;2023-01-29T06:59:32;100105.69;;;-0.79;100.00
41264;BME280;26998;48.714;9.414;2023-01-29T07:01:59;100098.75;;;-0.80;100.00
41264;BME280;26998;48.714;9.414;2023-01-29T07:04:25;100096.78;;;-0.77;100.00
41264;BME280;26998;48.714;9.414;2023-01-29T07:06:52;100112.53;;;-0.77;100.00
41264;BME280;26998;48.714;9.414;2023-01-29T07:09:18;100122.06;;;-0.76;100.00
41264;BME280;26998;48.714;9.414;2023-01-29T07:11:45;100121.25;;;-0.76;100.00
41264;BME280;26998;48.714;9.414;2023-01-29T07:14:11;100111.88;;;-0.80;100.00
41264;BME280;26998;48.714;9.414;2023-01-29T07:16:38;100099.84;;;-0.84;100.00
41264;BME280;26998;48.714;9.414;2023-01-29T07:19:04;100103.25;;;-0.82;100.00
41264;BME280;26998;48.714;9.414;2023-01-29T07:21:31;100096.13;;;-0.80;100.00
41264;BME280;26998;48.714;9.414;2023-01-29T07:23:58;100094.41;;;-0.81;100.00
41264;BME280;26998;48.714;9.414;2023-01-29T07:26:24;100091.41;;;-0.75;100.00
41264;BME280;26998;48.714;9.414;2023-01-29T07:28:51;100099.78;;;-0.68;100.00
41264;BME280;26998;48.714;9.414;2023-01-29T07:31:18;100091.16;;;-0.71;100.00
41264;BME280;26998;48.714;9.414;2023-01-29T07:33:44;100089.28;;;-0.68;100.00
41264;BME280;26998;48.714;9.414;2023-01-29T07:36:12;100083.53;;;-0.75;100.00
41264;BME280;26998;48.714;9.414;2023-01-29T07:38:40;100091.91;;;-0.68;100.00
41264;BME280;26998;48.714;9.414;2023-01-29T07:41:08;100087.84;;;-0.60;100.00
41264;BME280;26998;48.714;9.414;2023-01-29T07:43:35;100108.75;;;-0.58;100.00
41264;BME280;26998;48.714;9.414;2023-01-29T07:46:02;100105.09;;;-0.56;100.00
41264;BME280;26998;48.714;9.414;2023-01-29T07:48:29;100095.25;;;-0.52;100.00
41264;BME280;26998;48.714;9.414;2023-01-29T07:50:56;100094.00;;;-0.47;100.00
41264;BME280;26998;48.714;9.414;2023-01-29T07:53:23;100092.13;;;-0.44;100.00
41264;BME280;26998;48.714;9.414;2023-01-29T07:55:49;100089.28;;;-0.41;100.00
41264;BME280;26998;48.714;9.414;2023-01-29T07:58:16;100089.41;;;-0.43;100.00
41264;BME280;26998;48.714;9.414;2023-01-29T08:00:43;100082.56;;;-0.45;100.00
41264;BME280;26998;48.714;9.414;2023-01-29T08:03:16;100084.44;;;-0.48;100.00
41264;BME280;26998;48.714;9.414;2023-01-29T08:05:45;100085.19;;;-0.45;100.00
41264;BME280;26998;48.714;9.414;2023-01-29T08:08:12;100083.03;;;-0.53;100.00
41264;BME280;26998;48.714;9.414;2023-01-29T08:10:39;100091.03;;;-0.55;100.00
41264;BME280;26998;48.714;9.414;2023-01-29T08:13:06;100087.88;;;-0.47;100.00
41264;BME280;26998;48.714;9.414;2023-01-29T08:15:33;100093.72;;;-0.42;100.00
41264;BME280;26998;48.714;9.414;2023-01-29T08:18:03;100079.53;;;-0.39;100.00
41264;BME280;26998;48.714;9.414;2023-01-29T08:20:30;100072.94;;;-0.32;100.00
41264;BME280;26998;48.714;9.414;2023-01-29T08:23:01;100077.25;;;-0.31;100.00
41264;BME280;26998;48.714;9.414;2023-01-29T08:25:27;100075.94;;;-0.24;100.00
41264;BME280;26998;48.714;9.414;2023-01-29T08:27:58;100066.41;;;-0.12;100.00
41264;BME280;26998;48.714;9.414;2023-01-29T08:30:27;100061.25;;;-0.14;100.00
41264;BME280;26998;48.714;9.414;2023-01-29T08:32:54;100064.06;;;-0.17;100.00
41264;BME280;26998;48.714;9.414;2023-01-29T08:35:21;100061.97;;;-0.25;100.00
41264;BME280;26998;48.714;9.414;2023-01-29T08:37:53;100068.44;;;-0.30;100.00
41264;BME280;26998;48.714;9.414;2023-01-29T08:40:20;100066.97;;;-0.34;100.00
41264;BME280;26998;48.714;9.414;2023-01-29T08:42:46;100068.25;;;-0.27;100.00
41264;BME280;26998;48.714;9.414;2023-01-29T08:45:13;100063.81;;;-0.27;100.00
41264;BME280;26998;48.714;9.414;2023-01-29T08:47:48;100064.28;;;-0.20;100.00
41264;BME280;26998;48.714;9.414;2023-01-29T08:50:16;100056.03;;;-0.28;100.00
41264;BME280;26998;48.714;9.414;2023-01-29T08:52:44;100046.28;;;-0.26;100.00
41264;BME280;26998;48.714;9.414;2023-01-29T08:55:12;100044.28;;;-0.22;100.00
41264;BME280;26998;48.714;9.414;2023-01-29T08:57:39;100035.16;;;-0.17;100.00
41264;BME280;26998;48.714;9.414;2023-01-29T09:00:07;100018.78;;;-0.08;100.00
41264;BME280;26998;48.714;9.414;2023-01-29T09:02:33;100022.06;;;-0.04;100.00
41264;BME280;26998;48.714;9.414;2023-01-29T09:05:00;100028.66;;;-0.11;100.00
41264;BME280;26998;48.714;9.414;2023-01-29T09:07:28;100030.66;;;-0.15;100.00
41264;BME280;26998;48.714;9.414;2023-01-29T09:09:56;100026.44;;;-0.17;100.00
41264;BME280;26998;48.714;9.414;2023-01-29T09:12:23;100031.97;;;-0.22;100.00
41264;BME280;26998;48.714;9.414;2023-01-29T09:14:49;100023.81;;;-0.17;100.00
41264;BME280;26998;48.714;9.414;2023-01-29T09:17:16;100028.16;;;-0.04;100.00
41264;BME280;26998;48.714;9.414;2023-01-29T09:19:42;100013.97;;;0.12;100.00
41264;BME280;26998;48.714;9.414;2023-01-29T09:22:09;100018.75;;;0.19;100.00
41264;BME280;26998;48.714;9.414;2023-01-29T09:24:37;100018.63;;;0.21;100.00
41264;BME280;26998;48.714;9.414;2023-01-29T09:27:04;100015.56;;;0.14;100.00
41264;BME280;26998;48.714;9.414;2023-01-29T09:29:31;100015.72;;;-0.14;100.00
41264;BME280;26998;48.714;9.414;2023-01-29T09:32:02;100014.66;;;-0.25;100.00
41264;BME280;26998;48.714;9.414;2023-01-29T09:34:29;100018.34;;;-0.27;100.00
41264;BME280;26998;48.714;9.414;2023-01-29T09:36:55;100016.13;;;-0.20;100.00
41264;BME280;26998;48.714;9.414;2023-01-29T09:39:22;100021.00;;;-0.02;100.00
41264;BME280;26998;48.714;9.414;2023-01-29T09:45:05;100001.94;;;0.35;100.00
41264;BME280;26998;48.714;9.414;2023-01-29T09:47:35;99990.31;;;0.12;100.00
41264;BME280;26998;48.714;9.414;2023-01-29T09:50:43;99992.66;;;0.16;100.00
41264;BME280;26998;48.714;9.414;2023-01-29T09:53:28;99984.03;;;0.14;100.00
41264;BME280;26998;48.714;9.414;2023-01-29T09:56:03;99988.66;;;0.23;100.00
41264;BME280;26998;48.714;9.414;2023-01-29T09:58:36;99971.00;;;0.13;100.00
41264;BME280;26998;48.714;9.414;2023-01-29T10:01:31;99976.25;;;0.13;100.00
41264;BME280;26998;48.714;9.414;2023-01-29T10:12:29;99943.84;;;0.51;100.00
41264;BME280;26998;48.714;9.414;2023-01-29T10:23:29;99901.13;;;0.60;100.00
41264;BME280;26998;48.714;9.414;2023-01-29T10:25:59;99894.97;;;0.96;100.00
41264;BME280;26998;48.714;9.414;2023-01-29T10:28:42;99880.69;;;1.11;100.00
41264;BME280;26998;48.714;9.414;2023-01-29T10:33:42;99882.13;;;1.28;100.00
41264;BME280;26998;48.714;9.414;2023-01-29T10:36:41;99879.53;;;1.15;100.00
41264;BME280;26998;48.714;9.414;2023-01-29T10:39:18;99890.00;;;1.28;100.00
41264;BME280;26998;48.714;9.414;2023-01-29T10:42:16;99890.47;;;1.22;100.00
41264;BME280;26998;48.714;9.414;2023-01-29T10:45:03;99905.56;;;0.34;100.00
41264;BME280;26998;48.714;9.414;2023-01-29T10:47:58;99921.44;;;0.45;100.00
41264;BME280;26998;48.714;9.414;2023-01-29T10:53:17;99914.53;;;0.31;100.00
41264;BME280;26998;48.714;9.414;2023-01-29T10:56:11;99913.63;;;0.69;100.00
41264;BME280;26998;48.714;9.414;2023-01-29T11:02:00;99898.31;;;0.50;100.00
41264;BME280;26998;48.714;9.414;2023-01-29T11:04:29;99897.38;;;0.75;100.00
41264;BME280;26998;48.714;9.414;2023-01-29T11:06:57;99900.75;;;1.01;100.00
41264;BME280;26998;48.714;9.414;2023-01-29T11:10:02;99901.44;;;1.16;100.00
41264;BME280;26998;48.714;9.414;2023-01-29T11:12:34;99895.84;;;0.60;100.00
41264;BME280;26998;48.714;9.414;2023-01-29T11:15:17;99904.78;;;0.57;100.00
41264;BME280;26998;48.714;9.414;2023-01-29T11:18:14;99902.75;;;0.74;100.00
41264;BME280;26998;48.714;9.414;2023-01-29T11:20:43;99888.31;;;0.79;100.00
41264;BME280;26998;48.714;9.414;2023-01-29T11:23:29;99889.16;;;0.80;100.00
41264;BME280;26998;48.714;9.414;2023-01-29T11:25:57;99890.81;;;0.94;100.00
41264;BME280;26998;48.714;9.414;2023-01-29T11:28:45;99881.00;;;0.96;100.00
41264;BME280;26998;48.714;9.414;2023-01-29T11:31:26;99876.91;;;1.15;100.00
41264;BME280;26998;48.714;9.414;2023-01-29T11:34:19;99878.47;;;1.18;100.00
41264;BME280;26998;48.714;9.414;2023-01-29T11:36:59;99875.19;;;1.03;100.00
41264;BME280;26998;48.714;9.414;2023-01-29T11:39:28;99872.59;;;0.90;100.00
41264;BME280;26998;48.714;9.414;2023-01-29T11:41:56;99869.69;;;0.82;100.00
41264;BME280;26998;48.714;9.414;2023-01-29T11:44:32;99870.47;;;0.96;100.00
41264;BME280;26998;48.714;9.414;2023-01-29T11:49:50;99863.53;;;1.30;100.00
41264;BME280;26998;48.714;9.414;2023-01-29T11:52:20;99846.81;;;1.42;100.00
41264;BME280;26998;48.714;9.414;2023-01-29T11:54:53;99843.09;;;1.33;100.00
41264;BME280;26998;48.714;9.414;2023-01-29T11:57:34;99850.41;;;1.06;100.00
41264;BME280;26998;48.714;9.414;2023-01-29T12:00:23;99850.75;;;1.25;100.00
41264;BME280;26998;48.714;9.414;2023-01-29T12:03:14;99856.69;;;1.16;100.00
41264;BME280;26998;48.714;9.414;2023-01-29T12:05:54;99843.91;;;1.34;100.00
41264;BME280;26998;48.714;9.414;2023-01-29T12:08:22;99838.03;;;1.19;100.00
41264;BME280;26998;48.714;9.414;2023-01-29T12:10:49;99838.66;;;0.99;100.00
41264;BME280;26998;48.714;9.414;2023-01-29T12:13:26;99841.13;;;1.24;100.00
41264;BME280;26998;48.714;9.414;2023-01-29T12:19:26;99818.09;;;1.39;100.00
41264;BME280;26998;48.714;9.414;2023-01-29T12:22:01;99804.34;;;1.47;100.00
41264;BME280;26998;48.714;9.414;2023-01-29T12:24:56;99790.72;;;1.75;100.00
41264;BME280;26998;48.714;9.414;2023-01-29T12:30:24;99774.31;;;1.94;100.00
41264;BME280;26998;48.714;9.414;2023-01-29T12:35:26;99737.06;;;1.88;100.00
41264;BME280;26998;48.714;9.414;2023-01-29T12:38:16;99728.47;;;2.18;100.00
41264;BME280;26998;48.714;9.414;2023-01-29T12:40:48;99722.31;;;2.40;100.00
41264;BME280;26998;48.714;9.414;2023-01-29T12:43:21;99716.41;;;2.59;100.00
41264;BME280;26998;48.714;9.414;2023-01-29T12:45:53;99705.16;;;2.77;100.00
41264;BME280;26998;48.714;9.414;2023-01-29T12:48:28;99701.16;;;2.83;100.00
41264;BME280;26998;48.714;9.414;2023-01-29T12:51:15;99686.50;;;2.90;100.00
41264;BME280;26998;48.714;9.414;2023-01-29T12:53:58;99689.72;;;2.94;100.00
41264;BME280;26998;48.714;9.414;2023-01-29T12:56:39;99693.84;;;2.87;100.00
41264;BME280;26998;48.714;9.414;2023-01-29T12:59:25;99690.63;;;2.19;100.00
41264;BME280;26998;48.714;9.414;2023-01-29T13:02:03;99681.50;;;2.76;100.00
41264;BME280;26998;48.714;9.414;2023-01-29T13:04:36;99673.34;;;3.00;100.00
41264;BME280;26998;48.714;9.414;2023-01-29T13:07:30;99666.19;;;3.12;100.00
41264;BME280;26998;48.714;9.414;2023-01-29T13:10:08;99663.16;;;3.16;100.00
41264;BME280;26998;48.714;9.414;2023-01-29T13:12:36;99677.66;;;2.59;100.00
41264;BME280;26998;48.714;9.414;2023-01-29T13:15:23;99679.84;;;2.75;100.00
41264;BME280;26998;48.714;9.414;2023-01-29T13:18:06;99677.69;;;2.48;100.00
41264;BME280;26998;48.714;9.414;2023-01-29T13:20:42;99676.38;;;2.42;100.00
41264;BME280;26998;48.714;9.414;2023-01-29T13:23:21;99668.03;;;2.58;100.00
41264;BME280;26998;48.714;9.414;2023-01-29T13:25:51;99659.34;;;2.46;100.00
41264;BME280;26998;48.714;9.414;2023-01-29T13:28:24;99659.78;;;2.51;100.00
41264;BME280;26998;48.714;9.414;2023-01-29T13:33:37;99659.59;;;2.43;100.00
41264;BME280;26998;48.714;9.414;2023-01-29T13:36:13;99660.78;;;2.18;100.00
41264;BME280;26998;48.714;9.414;2023-01-29T13:38:42;99666.34;;;1.93;100.00
41264;BME280;26998;48.714;9.414;2023-01-29T13:41:08;99663.19;;;2.10;100.00
41264;BME280;26998;48.714;9.414;2023-01-29T13:43:40;99666.00;;;2.29;100.00
41264;BME280;26998;48.714;9.414;2023-01-29T13:46:15;99663.59;;;2.26;100.00
41264;BME280;26998;48.714;9.414;2023-01-29T13:48:48;99669.69;;;2.06;100.00
41264;BME280;26998;48.714;9.414;2023-01-29T13:51:19;99662.84;;;2.36;100.00
41264;BME280;26998;48.714;9.414;2023-01-29T13:54:00;99663.50;;;2.49;100.00
41264;BME280;26998;48.714;9.414;2023-01-29T13:59:00;99669.78;;;2.37;100.00
41264;BME280;26998;48.714;9.414;2023-01-29T14:04:25;99666.94;;;1.96;100.00
41264;BME280;26998;48.714;9.414;2023-01-29T14:06:56;99668.38;;;1.89;100.00
41264;BME280;26998;48.714;9.414;2023-01-29T14:15:16;99676.88;;;1.93;100.00
41264;BME280;26998;48.714;9.414;2023-01-29T14:20:23;99682.19;;;1.70;100.00
41264;BME280;26998;48.714;9.414;2023-01-29T14:23:21;99680.03;;;1.75;100.00
41264;BME280;26998;48.714;9.414;2023-01-29T14:25:50;99682.28;;;1.80;100.00
41264;BME280;26998;48.714;9.414;2023-01-29T14:28:21;99676.56;;;1.75;100.00
41264;BME280;26998;48.714;9.414;2023-01-29T14:30:48;99673.44;;;1.70;100.00
41264;BME280;26998;48.714;9.414;2023-01-29T14:33:37;99672.63;;;1.69;100.00
41264;BME280;26998;48.714;9.414;2023-01-29T14:36:13;99669.84;;;1.71;100.00
41264;BME280;26998;48.714;9.414;2023-01-29T14:38:48;99670.09;;;1.68;100.00
41264;BME280;26998;48.714;9.414;2023-01-29T14:41:25;99668.88;;;1.83;100.00
41264;BME280;26998;48.714;9.414;2023-01-29T14:46:58;99676.56;;;1.75;100.00